Kirishima Maru No.5 — JD2506 — position and weather

sailwx.info

Track history (hours):
 
Tides and Currents Weather Stations Pressure Air Temp Water Temp Dewpoint Dewpoint Depression Visibility Wind Speed Wind Dir Waves Ship Positions

Kirishima Maru No.5

Last reported at 2017-Nov-15 14:37 UTC. Time now 2017-Nov-18 06:47 UTC.
Position N 34°02' E 134°59'.

Length 105 m; draft 5.3 m.

Type: Tanker. MMSI: 431000338.

Date/timePositionNaut miles runAvg speedWind from/ knotsBaromVisibWave heightAir tempDewpointWater temp
2017-Nov-15 14:37N 34°02' E 134°59'216.0
2017-Nov-15 14:28N 34°05' E 134°59'816.2
2017-Nov-15 14:00N 34°12' E 134°58'1516.4
2017-Nov-15 13:07N 34°27' E 135°01'215.4
2017-Nov-15 12:59N 34°29' E 135°01'715.2
2017-Nov-15 12:31N 34°36' E 135°03'  
2017-Nov-11 02:31N 34°37' E 134°60'115.0
2017-Nov-11 02:26N 34°37' E 135°01'512.3
2017-Nov-11 02:00N 34°33' E 135°05'714.3
2017-Nov-11 01:29N 34°26' E 135°03'1313.5
2017-Nov-11 00:31N 34°13' E 134°59'012.7
2017-Nov-11 00:30N 34°13' E 134°59'613.0
2017-Nov-11 00:00N 34°06' E 134°59'  
Track history (hours):
 
Tides and Currents Weather Stations Pressure Air Temp Water Temp Dewpoint Dewpoint Depression Visibility Wind Speed Wind Dir Waves Ship Positions

Kirishima Maru No.5

Last reported at 2017-Nov-15 14:37 UTC. Time now 2017-Nov-18 06:47 UTC.
Position N 34°02' E 134°59'.

Length 105 m; draft 5.3 m.

Type: Tanker. MMSI: 431000338.

Date/timePositionNaut miles runAvg speedWind from/ knotsBaromVisibWave heightAir tempDewpointWater temp
2017-Nov-15 14:37N 34°02' E 134°59'216.0
2017-Nov-15 14:28N 34°05' E 134°59'816.2
2017-Nov-15 14:00N 34°12' E 134°58'1516.4
2017-Nov-15 13:07N 34°27' E 135°01'215.4
2017-Nov-15 12:59N 34°29' E 135°01'715.2
2017-Nov-15 12:31N 34°36' E 135°03'  
2017-Nov-11 02:31N 34°37' E 134°60'115.0
2017-Nov-11 02:26N 34°37' E 135°01'512.3
2017-Nov-11 02:00N 34°33' E 135°05'714.3
2017-Nov-11 01:29N 34°26' E 135°03'1313.5
2017-Nov-11 00:31N 34°13' E 134°59'012.7
2017-Nov-11 00:30N 34°13' E 134°59'613.0
2017-Nov-11 00:00N 34°06' E 134°59'  

Dump ship's entire track history